Time;durP1;ratioP1;P1;durP2;ratioP2;P2;SDS_P1;SDS_P2;PMS_P1;PMS_P2;Temp;Humidity;BMP_temperature;BMP_pressure;BME280_temperature;BME280_humidity;BME280_pressure;Samples;Min_cycle;Max_cycle;Signal;HPM_P1;HPM_P2
2023/10/19 00:00:40;;;;;;;10.25;7.45;;;;;;;6.81;80.28;94866.09;5046929;28;20056;-69
2023/10/19 00:03:06;;;;;;;10.88;7.72;;;;;;;6.80;80.54;94863.59;5063942;28;20029;-69
2023/10/19 00:05:32;;;;;;;9.60;7.43;;;;;;;6.78;80.41;94863.72;5066742;28;20029;-69
2023/10/19 00:07:59;;;;;;;10.90;8.25;;;;;;;6.87;80.27;94863.09;5049822;28;20035;-69
2023/10/19 00:10:26;;;;;;;10.20;8.18;;;;;;;6.84;80.11;94862.47;5065299;28;20082;-69
2023/10/19 00:12:59;;;;;;;10.20;7.68;;;;;;;6.82;80.41;94847.06;5063313;28;20036;-69
2023/10/19 00:15:28;;;;;;;9.60;7.53;;;;;;;6.89;79.79;94852.66;5066210;28;20029;-69
2023/10/19 00:17:54;;;;;;;10.75;7.88;;;;;;;6.89;79.72;94843.16;5046100;28;20106;-69
2023/10/19 00:23:32;;;;;;;9.77;7.13;;;;;;;6.85;79.88;94849.47;5021402;28;20037;-69
2023/10/19 00:25:59;;;;;;;9.65;7.75;;;;;;;6.78;80.12;94842.22;5043349;28;20086;-69
2023/10/19 00:28:27;;;;;;;10.20;7.93;;;;;;;6.85;79.17;94833.13;5057757;28;20041;-69
2023/10/19 00:30:59;;;;;;;9.98;7.28;;;;;;;6.89;78.97;94834.59;5030757;28;20036;-69
2023/10/19 00:33:28;;;;;;;8.55;6.47;;;;;;;6.85;79.09;94846.03;5065062;28;20474;-69
2023/10/19 00:36:09;;;;;;;10.43;6.72;;;;;;;6.86;79.24;94829.63;5049177;28;20051;-70
2023/10/19 00:41:29;;;;;;;10.48;6.88;;;;;;;6.77;78.80;94823.34;5046805;28;20123;-70
2023/10/19 00:43:48;;;;;;;9.48;6.43;;;;;;;6.81;78.57;94819.59;5059865;28;20499;-69
2023/10/19 00:48:49;;;;;;;8.77;7.15;;;;;;;6.76;78.85;94816.50;5063771;28;20047;-69
2023/10/19 00:52:02;;;;;;;8.38;6.65;;;;;;;6.83;78.76;94811.78;5063522;28;20403;-69
2023/10/19 00:54:08;;;;;;;9.38;6.40;;;;;;;6.51;78.66;94788.94;5063769;28;20094;-69
2023/10/19 00:56:34;;;;;;;8.18;6.18;;;;;;;6.79;78.75;94826.63;5065361;28;20128;-69
2023/10/19 00:59:00;;;;;;;7.68;6.22;;;;;;;6.72;78.89;94821.06;5064953;28;20039;-69
2023/10/19 01:01:29;;;;;;;7.75;6.43;;;;;;;6.77;78.41;94825.06;5047773;28;20081;-69
2023/10/19 01:03:56;;;;;;;8.40;6.35;;;;;;;6.71;78.34;94818.56;5064457;28;20094;-69
2023/10/19 01:06:25;;;;;;;7.88;6.30;;;;;;;6.74;78.35;94826.09;5064406;28;20036;-69
2023/10/19 01:08:52;;;;;;;8.48;6.28;;;;;;;6.74;77.66;94807.22;5049119;28;20067;-70
2023/10/19 01:11:20;;;;;;;8.70;6.45;;;;;;;6.64;78.21;94825.91;5064156;28;20086;-69
2023/10/19 01:13:51;;;;;;;7.25;6.03;;;;;;;6.63;78.56;94821.69;5061645;28;20017;-69
2023/10/19 01:16:23;;;;;;;;;;;;;;;6.76;78.09;94826.00;5048673;28;20426;-69
2023/10/19 01:18:51;;;;;;;;;;;;;;;6.56;78.80;94830.75;5065485;28;20368;-69
2023/10/19 01:21:21;;;;;;;6.60;5.30;;;;;;;6.50;78.76;94831.16;5063546;28;19955;-69
2023/10/19 01:23:47;;;;;;;7.45;5.82;;;;;;;6.61;78.01;94831.28;5065054;28;20512;-69
2023/10/19 01:26:18;;;;;;;7.10;5.60;;;;;;;6.55;78.29;94830.88;5047202;28;20043;-69
2023/10/19 01:28:47;;;;;;;7.63;5.70;;;;;;;6.48;78.59;94827.84;5064764;28;20025;-69
2023/10/19 01:31:22;;;;;;;6.95;5.68;;;;;;;6.60;77.71;94824.47;5044230;28;20052;-69
2023/10/19 01:33:48;;;;;;;7.85;5.60;;;;;;;6.62;77.84;94826.94;5058533;28;20106;-69
2023/10/19 01:36:24;;;;;;;7.13;5.57;;;;;;;6.53;78.12;94817.25;5047657;28;20111;-70
2023/10/19 01:38:54;;;;;;;7.78;5.57;;;;;;;6.57;77.79;94824.66;5049525;28;20486;-70
2023/10/19 01:41:20;;;;;;;8.02;5.03;;;;;;;6.46;78.06;94807.34;5063512;28;20060;-69
2023/10/19 01:43:48;;;;;;;8.05;5.47;;;;;;;6.64;78.07;94825.09;5047327;28;20029;-69
2023/10/19 01:46:21;;;;;;;6.95;5.30;;;;;;;6.46;78.29;94816.81;5051291;28;20049;-69
2023/10/19 01:48:48;;;;;;;7.30;5.45;;;;;;;6.42;78.73;94829.09;5052866;28;20158;-69
2023/10/19 01:51:14;;;;;;;7.05;5.55;;;;;;;6.39;78.35;94810.41;5067331;28;20090;-69
2023/10/19 01:53:42;;;;;;;6.63;5.30;;;;;;;6.35;78.35;94809.81;5068974;28;20060;-69
2023/10/19 01:56:12;;;;;;;7.00;5.65;;;;;;;6.41;78.46;94817.13;5068070;28;20129;-69
2023/10/19 01:58:39;;;;;;;7.38;5.47;;;;;;;6.39;78.31;94820.75;5052295;28;20075;-69
2023/10/19 02:03:42;;;;;;;6.40;4.95;;;;;;;6.27;78.45;94806.91;5053390;28;20737;-69
2023/10/19 02:06:17;;;;;;;6.63;5.15;;;;;;;6.37;78.74;94823.41;5068562;28;20044;-69
2023/10/19 02:08:51;;;;;;;7.50;5.53;;;;;;;6.45;78.41;94835.81;5068824;28;20012;-69
2023/10/19 02:11:23;;;;;;;6.30;5.10;;;;;;;6.37;78.10;94820.81;5066374;28;20047;-69
2023/10/19 02:13:50;;;;;;;6.57;5.10;;;;;;;6.35;78.50;94824.44;5050657;28;20032;-69
2023/10/19 02:16:16;;;;;;;6.53;5.32;;;;;;;6.19;78.40;94791.91;5069122;28;20212;-70
2023/10/19 02:18:42;;;;;;;6.88;5.75;;;;;;;6.19;78.73;94804.00;5068027;28;20052;-69
2023/10/19 02:21:11;;;;;;;9.40;5.50;;;;;;;6.34;78.21;94823.59;5047917;28;20040;-70
2023/10/19 02:23:37;;;;;;;5.95;4.90;;;;;;;6.31;78.23;94817.84;5070441;28;20021;-69
2023/10/19 02:26:03;;;;;;;6.93;5.43;;;;;;;6.04;79.10;94816.97;5069471;28;20051;-69
2023/10/19 02:28:31;;;;;;;5.75;4.70;;;;;;;6.20;78.53;94834.00;5050431;28;20024;-69
2023/10/19 02:30:59;;;;;;;7.13;5.50;;;;;;;6.22;78.75;94838.16;5066276;28;20048;-70
2023/10/19 02:33:26;;;;;;;7.05;5.22;;;;;;;6.25;78.52;94837.94;5068017;28;20090;-69
2023/10/19 02:35:52;;;;;;;7.22;5.35;;;;;;;6.13;78.89;94838.75;5068121;28;20074;-70
2023/10/19 02:38:17;;;;;;;6.45;5.18;;;;;;;6.18;78.99;94838.44;5032179;28;20514;-69
2023/10/19 02:40:42;;;;;;;6.32;4.97;;;;;;;6.16;79.13;94820.50;5049488;28;20036;-69
2023/10/19 02:43:08;;;;;;;7.72;5.55;;;;;;;6.25;78.96;94830.19;5050511;28;20044;-70
2023/10/19 02:45:34;;;;;;;7.78;5.80;;;;;;;6.33;78.68;94826.31;5067214;28;20025;-69
2023/10/19 02:48:00;;;;;;;7.05;5.05;;;;;;;6.09;78.89;94813.25;5067888;28;20035;-69
2023/10/19 02:50:26;;;;;;;7.72;5.53;;;;;;;6.20;78.86;94821.13;5068368;28;20028;-69
2023/10/19 02:52:53;;;;;;;6.55;5.30;;;;;;;6.17;79.04;94827.28;5068356;28;20044;-69
2023/10/19 02:55:23;;;;;;;6.85;5.05;;;;;;;6.25;79.06;94840.53;5065697;28;20090;-69
2023/10/19 02:57:48;;;;;;;5.80;4.50;;;;;;;6.02;78.99;94820.56;5067533;28;20032;-69
2023/10/19 03:00:19;;;;;;;8.40;5.63;;;;;;;6.08;79.31;94829.66;5063406;28;20028;-69
2023/10/19 03:02:45;;;;;;;6.93;5.07;;;;;;;6.11;79.06;94825.13;5049808;28;20391;-69
2023/10/19 03:05:17;;;;;;;6.53;4.80;;;;;;;5.93;79.51;94818.53;5066513;28;20044;-69
2023/10/19 03:07:43;;;;;;;6.97;5.53;;;;;;;6.02;80.13;94829.13;5066679;28;20490;-69
2023/10/19 03:10:23;;;;;;;6.65;5.00;;;;;;;6.05;79.88;94828.09;5048144;28;20040;-69
2023/10/19 03:12:49;;;;;;;6.32;5.30;;;;;;;5.91;79.95;94799.78;5064213;28;20399;-69
2023/10/19 03:15:15;;;;;;;7.28;5.65;;;;;;;6.07;79.71;94820.25;5067151;28;20038;-69
2023/10/19 03:17:41;;;;;;;8.52;4.93;;;;;;;6.02;79.69;94813.66;5067721;28;20450;-69
2023/10/19 03:20:10;;;;;;;6.85;5.32;;;;;;;6.05;79.96;94822.94;5065704;28;20043;-69
2023/10/19 03:22:38;;;;;;;6.90;4.85;;;;;;;6.10;79.96;94818.31;5063025;28;20513;-70
2023/10/19 03:27:49;;;;;;;8.15;5.15;;;;;;;6.06;79.81;94826.34;5068280;28;20039;-70
2023/10/19 03:30:15;;;;;;;7.43;5.55;;;;;;;6.07;79.60;94825.41;5066293;28;20214;-70
2023/10/19 03:32:41;;;;;;;6.65;5.05;;;;;;;5.96;79.65;94806.31;5048173;28;20524;-70
2023/10/19 03:35:06;;;;;;;6.95;5.32;;;;;;;6.05;79.90;94817.78;5066389;28;20033;-70
2023/10/19 03:37:35;;;;;;;8.75;5.47;;;;;;;5.98;79.37;94816.53;5066543;28;21679;-69
2023/10/19 03:40:05;;;;;;;6.85;4.70;;;;;;;6.00;80.15;94817.25;5065209;28;20036;-70
2023/10/19 03:42:39;;;;;;;5.68;4.75;;;;;;;5.95;79.95;94808.97;5065106;28;20037;-70
2023/10/19 03:45:12;;;;;;;8.27;5.38;;;;;;;6.09;79.66;94810.66;5062116;28;20044;-70
2023/10/19 03:47:38;;;;;;;7.22;5.35;;;;;;;5.74;80.34;94786.22;5066205;28;20066;-70
2023/10/19 03:50:06;;;;;;;6.90;5.03;;;;;;;5.98;80.06;94808.78;5063060;28;20032;-70
2023/10/19 03:52:32;;;;;;;6.60;5.25;;;;;;;6.01;79.59;94806.00;5032366;28;20107;-69
2023/10/19 03:54:58;;;;;;;7.55;5.38;;;;;;;6.10;79.50;94820.06;5068139;28;20029;-70
2023/10/19 03:57:24;;;;;;;6.78;5.13;;;;;;;6.05;79.36;94812.63;5065084;28;20036;-70
2023/10/19 03:59:52;;;;;;;6.88;5.10;;;;;;;5.93;79.50;94803.91;5049115;28;20097;-70
2023/10/19 04:02:20;;;;;;;7.60;5.05;;;;;;;5.82;79.92;94799.44;5064243;28;20078;-70
2023/10/19 04:04:48;;;;;;;7.80;4.93;;;;;;;5.86;79.67;94809.56;5066767;28;20021;-70
2023/10/19 04:07:26;;;;;;;7.15;4.93;;;;;;;5.92;79.61;94796.25;5047916;28;20127;-70
2023/10/19 04:12:37;;;;;;;5.50;4.15;;;;;;;5.94;79.25;94807.34;5064670;28;20051;-70
2023/10/19 04:15:16;;;;;;;8.07;4.65;;;;;;;5.89;79.93;94806.78;5065755;28;20028;-70
2023/10/19 04:17:45;;;;;;;5.43;4.30;;;;;;;5.79;79.74;94812.53;5065240;28;20056;-70
2023/10/19 04:22:45;;;;;;;7.07;4.00;;;;;;;5.87;79.16;94790.56;5064352;28;20063;-70
2023/10/19 04:25:15;;;;;;;5.78;4.13;;;;;;;5.76;79.59;94792.09;5064755;28;20991;-70
2023/10/19 04:27:44;;;;;;;6.07;4.27;;;;;;;5.96;79.02;94802.91;5049853;28;20044;-70
2023/10/19 04:30:15;;;;;;;4.85;3.83;;;;;;;5.91;78.56;94800.59;5067283;28;20101;-70
2023/10/19 04:32:41;;;;;;;;;;;;;;;5.83;79.25;94808.81;5049498;28;20032;-70
2023/10/19 04:35:08;;;;;;;5.85;3.65;;;;;;;5.67;79.14;94802.16;5064654;28;19916;-70
2023/10/19 04:37:33;;;;;;;5.28;4.07;;;;;;;5.69;79.61;94810.63;5066831;28;20133;-70
2023/10/19 04:40:00;;;;;;;4.45;3.58;;;;;;;5.68;79.58;94801.22;5066494;28;20648;-70
2023/10/19 04:42:27;;;;;;;4.95;3.80;;;;;;;5.68;79.28;94802.06;5063651;28;20047;-70
2023/10/19 04:44:54;;;;;;;5.53;4.18;;;;;;;5.65;79.47;94796.28;5063760;28;20068;-69
2023/10/19 04:47:19;;;;;;;7.15;3.60;;;;;;;5.59;79.23;94784.59;5066121;28;20112;-70
2023/10/19 04:49:45;;;;;;;5.55;3.92;;;;;;;5.27;79.33;94732.56;5064087;28;20093;-70
2023/10/19 04:52:10;;;;;;;5.38;3.92;;;;;;;5.52;79.57;94786.75;5045883;28;20036;-70
2023/10/19 04:54:37;;;;;;;4.07;3.17;;;;;;;5.56;79.47;94793.34;5066671;28;20028;-70
2023/10/19 04:57:03;;;;;;;5.22;3.67;;;;;;;5.59;79.02;94784.59;5066387;28;20037;-70
2023/10/19 04:59:32;;;;;;;4.32;3.50;;;;;;;5.54;79.20;94771.19;5048602;28;20486;-70
2023/10/19 05:01:58;;;;;;;4.30;3.28;;;;;;;5.63;78.97;94792.97;5047398;28;20079;-69
2023/10/19 05:04:24;;;;;;;5.05;3.90;;;;;;;5.62;79.06;94789.56;5049109;28;20040;-70
2023/10/19 05:06:49;;;;;;;5.07;3.53;;;;;;;5.46;79.04;94771.69;5065519;28;20041;-70
2023/10/19 05:09:15;;;;;;;6.13;3.58;;;;;;;5.51;79.38;94787.66;5062424;28;20066;-70
2023/10/19 05:11:40;;;;;;;4.47;3.30;;;;;;;5.51;79.65;94786.84;5064301;28;20032;-70
2023/10/19 05:14:06;;;;;;;4.68;3.55;;;;;;;5.49;79.40;94784.38;5065892;28;20037;-71
2023/10/19 05:16:31;;;;;;;4.45;3.50;;;;;;;5.53;78.89;94775.50;5064993;28;20142;-71
2023/10/19 05:18:57;;;;;;;4.35;3.22;;;;;;;5.60;79.02;94788.84;5064918;28;20305;-70
2023/10/19 05:21:22;;;;;;;6.05;3.35;;;;;;;5.64;78.87;94785.16;5067653;28;20394;-71
2023/10/19 05:23:47;;;;;;;5.35;3.65;;;;;;;5.61;79.31;94798.22;5069405;28;20028;-70
2023/10/19 05:26:14;;;;;;;5.03;3.83;;;;;;;5.48;79.22;94781.88;5068948;28;20025;-69
2023/10/19 05:28:42;;;;;;;4.50;3.30;;;;;;;5.59;79.47;94792.34;5067710;28;20024;-69
2023/10/19 05:31:08;;;;;;;8.43;3.88;;;;;;;5.68;79.17;94794.31;5032848;28;20032;-69
2023/10/19 05:33:33;;;;;;;4.68;3.42;;;;;;;5.70;79.02;94787.31;5067338;28;20020;-69
2023/10/19 05:36:01;;;;;;;5.45;4.10;;;;;;;5.78;78.86;94795.41;5070133;28;20109;-69
2023/10/19 05:38:27;;;;;;;4.40;3.67;;;;;;;5.76;78.77;94786.94;5067326;28;20089;-70
2023/10/19 05:40:52;;;;;;;4.90;3.78;;;;;;;5.80;78.87;94801.28;5067554;28;20082;-69
2023/10/19 05:43:17;;;;;;;5.25;3.95;;;;;;;5.95;78.07;94788.34;5067446;28;20033;-69
2023/10/19 05:45:43;;;;;;;5.30;3.95;;;;;;;6.01;78.30;94790.53;5051494;28;20090;-69
2023/10/19 05:48:08;;;;;;;6.93;3.78;;;;;;;5.98;77.80;94809.59;5069764;28;20211;-69
2023/10/19 05:50:35;;;;;;;4.25;3.80;;;;;;;5.96;78.21;94811.47;5070027;28;20099;-69
2023/10/19 05:53:01;;;;;;;4.65;3.60;;;;;;;5.99;78.55;94813.00;5063271;28;20052;-69
2023/10/19 05:55:26;;;;;;;5.03;4.10;;;;;;;6.18;78.04;94813.47;5066418;28;20028;-69
2023/10/19 05:57:52;;;;;;;5.22;3.92;;;;;;;5.97;78.84;94799.41;5056299;28;20489;-69
2023/10/19 06:00:20;;;;;;;7.55;3.67;;;;;;;6.17;78.72;94813.56;5068746;28;20036;-69
2023/10/19 06:02:46;;;;;;;5.15;3.78;;;;;;;6.17;79.17;94808.41;5065437;28;20032;-69
2023/10/19 06:05:18;;;;;;;7.25;4.70;;;;;;;6.47;79.08;94811.56;5051550;28;20024;-69
2023/10/19 06:07:48;;;;;;;5.25;4.07;;;;;;;6.52;77.92;94803.50;5050361;28;20464;-69
2023/10/19 06:10:20;;;;;;;5.10;3.90;;;;;;;6.70;77.93;94812.59;5050901;28;20032;-69
2023/10/19 06:12:46;;;;;;;6.82;3.70;;;;;;;6.75;76.86;94801.13;5064409;28;20279;-69
2023/10/19 06:15:11;;;;;;;5.55;4.03;;;;;;;6.90;76.77;94816.38;5069273;28;20028;-70
2023/10/19 06:17:40;;;;;;;4.68;4.00;;;;;;;6.93;77.18;94820.53;5066280;28;20573;-69
2023/10/19 06:20:28;;;;;;;4.68;3.60;;;;;;;6.91;76.44;94775.91;5065840;28;20033;-69
2023/10/19 06:23:03;;;;;;;5.20;4.03;;;;;;;7.23;75.28;94804.66;5065810;28;20036;-70
2023/10/19 06:25:29;;;;;;;5.68;4.10;;;;;;;7.48;75.53;94811.53;5068606;28;20028;-69
2023/10/19 06:27:57;;;;;;;4.72;3.58;;;;;;;7.42;75.50;94806.78;5067853;28;20035;-69
2023/10/19 06:30:22;;;;;;;4.60;3.70;;;;;;;7.46;75.61;94805.63;5065939;28;20067;-69
2023/10/19 06:32:54;;;;;;;4.55;3.65;;;;;;;7.49;75.55;94815.75;5063997;28;20602;-69
2023/10/19 06:35:20;;;;;;;4.57;3.42;;;;;;;7.51;74.84;94788.03;5081477;28;20285;-70
2023/10/19 06:37:46;;;;;;;5.10;3.88;;;;;;;7.58;74.85;94802.19;5063186;28;20429;-70
2023/10/19 06:40:12;;;;;;;4.47;3.60;;;;;;;7.72;74.93;94795.22;5064903;28;20626;-69
2023/10/19 06:42:38;;;;;;;5.03;4.05;;;;;;;7.94;74.30;94791.88;5061916;28;20277;-70
2023/10/19 06:45:04;;;;;;;4.68;3.50;;;;;;;8.04;72.76;94798.88;5067942;28;20036;-69
2023/10/19 06:47:30;;;;;;;4.28;3.45;;;;;;;7.89;74.35;94796.59;5066699;28;20040;-70
2023/10/19 06:49:55;;;;;;;5.55;3.97;;;;;;;7.91;73.80;94798.13;5065380;28;20501;-70
2023/10/19 06:52:21;;;;;;;4.88;3.60;;;;;;;8.11;73.56;94803.59;5064000;28;20495;-70
2023/10/19 06:54:47;;;;;;;5.78;3.28;;;;;;;8.09;73.02;94792.53;5064810;28;20020;-70
2023/10/19 06:57:12;;;;;;;4.70;3.60;;;;;;;7.99;73.05;94798.38;5064950;28;20047;-69
2023/10/19 06:59:38;;;;;;;4.78;3.92;;;;;;;8.03;73.53;94805.00;5066331;28;20034;-70
2023/10/19 07:02:04;;;;;;;5.32;3.88;;;;;;;8.28;73.24;94806.59;5065787;28;20040;-69
2023/10/19 07:04:29;;;;;;;5.90;4.20;;;;;;;8.30;74.14;94801.28;5067168;28;20032;-70
2023/10/19 07:06:56;;;;;;;8.18;5.93;;;;;;;8.43;73.97;94807.25;5065206;28;20048;-70
2023/10/19 07:09:22;;;;;;;8.20;6.68;;;;;;;8.35;74.17;94791.44;5050529;28;20034;-69
2023/10/19 07:11:48;;;;;;;9.05;6.10;;;;;;;8.44;73.92;94782.19;5063424;28;20098;-70
2023/10/19 07:14:13;;;;;;;7.13;5.72;;;;;;;8.35;74.34;94778.50;5068404;28;20475;-70
2023/10/19 07:16:42;;;;;;;7.47;5.88;;;;;;;8.49;74.23;94772.31;5048869;28;20055;-70
2023/10/19 07:19:09;;;;;;;7.85;6.05;;;;;;;8.93;72.93;94781.06;5066683;28;20102;-70
2023/10/19 07:21:36;;;;;;;7.80;6.50;;;;;;;9.23;71.52;94771.88;5042985;28;20495;-70
2023/10/19 07:24:05;;;;;;;12.90;8.57;;;;;;;9.31;71.74;94778.09;5066013;28;20486;-70
2023/10/19 07:26:33;;;;;;;15.15;9.70;;;;;;;9.30;70.63;94789.41;5066421;28;20037;-70
2023/10/19 07:28:59;;;;;;;16.95;11.32;;;;;;;9.33;70.46;94793.53;5067682;28;20066;-70
2023/10/19 07:31:27;;;;;;;9.52;6.93;;;;;;;9.61;69.40;94784.38;5046918;28;20032;-69
2023/10/19 07:33:55;;;;;;;16.50;10.60;;;;;;;9.63;69.28;94772.94;5068362;28;20100;-70
2023/10/19 07:36:20;;;;;;;11.20;8.75;;;;;;;9.87;69.32;94791.88;5067369;28;20033;-70
2023/10/19 07:38:47;;;;;;;8.07;5.80;;;;;;;9.15;68.86;94788.00;5064594;28;20027;-70
2023/10/19 07:41:13;;;;;;;8.93;6.50;;;;;;;9.65;69.14;94767.66;5062490;28;20085;-70
2023/10/19 07:43:38;;;;;;;9.98;6.43;;;;;;;9.86;69.22;94785.84;5065593;28;20021;-70
2023/10/19 07:46:04;;;;;;;11.48;6.82;;;;;;;10.05;68.04;94795.56;5066841;28;20454;-71
2023/10/19 07:48:29;;;;;;;7.20;6.15;;;;;;;10.05;66.95;94772.22;5068538;28;20040;-71
2023/10/19 07:50:55;;;;;;;7.95;5.60;;;;;;;10.79;66.36;94789.56;5064070;28;20056;-69
2023/10/19 07:53:21;;;;;;;9.82;7.68;;;;;;;10.68;66.05;94785.25;5047807;28;20108;-69
2023/10/19 07:55:47;;;;;;;8.20;6.03;;;;;;;10.39;66.22;94780.72;5047787;28;20040;-70
2023/10/19 07:58:12;;;;;;;15.82;9.63;;;;;;;10.29;66.76;94788.41;5045950;28;20581;-71
2023/10/19 08:00:38;;;;;;;15.02;10.07;;;;;;;10.56;65.95;94779.31;5064492;28;20032;-71
2023/10/19 08:03:04;;;;;;;17.48;11.57;;;;;;;11.05;64.77;94782.16;5047824;28;20028;-71
2023/10/19 08:05:30;;;;;;;10.85;7.80;;;;;;;11.30;63.35;94778.25;5062865;28;20691;-72
2023/10/19 08:07:57;;;;;;;10.82;7.63;;;;;;;11.68;62.61;94793.16;5033074;28;20037;-72
2023/10/19 08:10:22;;;;;;;8.25;6.47;;;;;;;11.42;61.98;94782.41;5060818;28;20734;-71
2023/10/19 08:12:48;;;;;;;7.72;6.60;;;;;;;11.90;59.94;94801.72;5030383;28;20028;-71
2023/10/19 08:15:15;;;;;;;7.65;6.15;;;;;;;11.74;61.13;94781.38;5050439;28;20414;-71
2023/10/19 08:17:48;;;;;;;7.28;5.70;;;;;;;11.30;62.82;94797.28;5064852;28;20568;-71
2023/10/19 08:20:22;;;;;;;8.10;6.50;;;;;;;11.34;62.07;94790.88;5065183;28;20482;-71
2023/10/19 08:22:50;;;;;;;7.22;6.30;;;;;;;11.59;62.57;94793.97;5027823;28;20049;-71
2023/10/19 08:25:16;;;;;;;10.52;6.40;;;;;;;11.52;62.87;94788.44;5063976;28;20581;-71
2023/10/19 08:27:44;;;;;;;7.63;6.05;;;;;;;11.73;61.98;94771.91;5065882;28;20045;-71
2023/10/19 08:30:13;;;;;;;8.68;6.57;;;;;;;11.71;61.71;94786.84;5064972;28;20032;-72
2023/10/19 08:32:41;;;;;;;7.72;6.50;;;;;;;11.50;62.04;94784.34;5063103;28;20040;-71
2023/10/19 08:35:07;;;;;;;10.95;7.50;;;;;;;11.67;61.49;94780.25;5062608;28;20422;-71
2023/10/19 08:37:36;;;;;;;8.73;5.93;;;;;;;11.73;61.25;94795.34;5066420;28;20129;-71
2023/10/19 08:40:01;;;;;;;7.65;5.88;;;;;;;11.79;60.33;94793.03;5032848;28;20032;-71
2023/10/19 08:42:30;;;;;;;7.82;5.70;;;;;;;12.06;59.69;94787.22;5058167;28;20020;-71
2023/10/19 08:44:55;;;;;;;5.88;4.85;;;;;;;12.15;59.72;94780.34;5048387;28;20040;-71
2023/10/19 08:47:25;;;;;;;7.75;5.43;;;;;;;12.38;59.42;94793.91;5048687;28;20044;-72
2023/10/19 08:49:51;;;;;;;6.72;5.45;;;;;;;12.31;59.51;94792.78;5067235;28;20036;-72
2023/10/19 08:52:17;;;;;;;7.85;5.97;;;;;;;12.41;60.14;94782.38;5043952;28;20111;-74
2023/10/19 08:54:43;;;;;;;6.70;5.30;;;;;;;12.30;60.47;94796.38;5066152;28;20082;-70
2023/10/19 08:57:09;;;;;;;7.18;5.43;;;;;;;12.29;59.87;94782.53;5067879;28;20479;-71
2023/10/19 08:59:34;;;;;;;8.13;5.03;;;;;;;12.06;59.72;94771.59;5051782;28;20032;-71
2023/10/19 09:02:02;;;;;;;8.57;5.22;;;;;;;12.12;59.85;94774.56;5063175;28;20060;-71
2023/10/19 09:04:29;;;;;;;7.90;5.63;;;;;;;12.34;59.21;94778.69;5066593;28;20494;-70
2023/10/19 09:06:55;;;;;;;7.30;5.05;;;;;;;12.71;58.56;94787.41;5069284;28;20040;-71
2023/10/19 09:09:21;;;;;;;7.95;5.30;;;;;;;12.63;58.59;94783.88;5070364;28;20035;-70
2023/10/19 09:11:49;;;;;;;8.07;5.10;;;;;;;12.50;59.48;94779.75;5032288;28;20143;-71
2023/10/19 09:14:17;;;;;;;5.97;4.90;;;;;;;12.90;56.97;94765.69;5050818;28;20475;-72
2023/10/19 09:16:55;;;;;;;6.82;5.20;;;;;;;12.85;57.88;94762.69;5061670;28;20024;-72
2023/10/19 09:19:36;;;;;;;6.47;4.97;;;;;;;12.74;57.96;94744.59;5035038;28;20088;-72
2023/10/19 09:22:07;;;;;;;6.33;5.03;;;;;;;12.73;58.58;94758.59;5041689;28;20071;-73
2023/10/19 09:24:35;;;;;;;6.20;4.80;;;;;;;12.82;58.01;94743.91;5066395;28;20494;-72
2023/10/19 09:27:04;;;;;;;7.38;5.35;;;;;;;13.04;57.49;94766.16;5050723;28;20421;-72
2023/10/19 09:29:31;;;;;;;7.45;5.75;;;;;;;12.81;57.57;94745.66;5067082;28;20098;-72
2023/10/19 09:31:58;;;;;;;7.38;5.97;;;;;;;13.09;57.55;94748.31;5067686;28;20036;-72
2023/10/19 09:34:31;;;;;;;8.48;6.13;;;;;;;13.14;57.41;94743.50;5049713;28;20033;-72
2023/10/19 09:36:57;;;;;;;8.55;6.65;;;;;;;13.11;57.39;94726.34;5066019;28;20029;-72
2023/10/19 09:39:23;;;;;;;11.18;8.32;;;;;;;13.18;57.30;94731.81;5068581;28;20411;-73
2023/10/19 09:41:50;;;;;;;6.10;5.00;;;;;;;13.15;57.03;94711.25;5067306;28;20520;-72
2023/10/19 09:44:15;;;;;;;8.32;6.18;;;;;;;13.20;57.55;94709.00;5050392;28;20033;-72
2023/10/19 09:46:41;;;;;;;6.65;5.05;;;;;;;13.14;57.15;94702.56;5048327;28;20121;-73
2023/10/19 09:49:08;;;;;;;11.65;7.65;;;;;;;13.25;57.17;94706.78;5035000;28;20032;-72
2023/10/19 09:51:34;;;;;;;10.02;8.15;;;;;;;13.23;57.58;94693.06;5063431;28;20029;-73
2023/10/19 09:54:11;;;;;;;12.43;10.10;;;;;;;13.26;57.69;94698.03;5035447;28;20351;-72
2023/10/19 09:56:39;;;;;;;8.15;6.88;;;;;;;13.18;58.26;94698.72;5051116;28;20032;-72
2023/10/19 09:59:13;;;;;;;7.53;6.32;;;;;;;13.43;56.97;94683.38;5043792;28;20075;-71
2023/10/19 10:02:13;;;;;;;9.50;7.63;;;;;;;13.45;57.56;94691.03;5069495;28;20531;-71
2023/10/19 10:04:40;;;;;;;7.30;5.70;;;;;;;13.34;57.35;94689.47;5057384;28;20401;-71
2023/10/19 10:07:06;;;;;;;24.40;14.25;;;;;;;13.50;57.67;94688.81;5067320;28;20086;-70
2023/10/19 10:09:39;;;;;;;22.65;14.90;;;;;;;13.72;57.96;94690.16;5053685;28;20098;-71
2023/10/19 10:12:23;;;;;;;7.82;4.70;;;;;;;13.67;57.21;94688.00;5031010;28;20045;-71
2023/10/19 10:15:01;;;;;;;6.45;5.00;;;;;;;13.52;57.83;94673.84;5058463;28;20028;-71
2023/10/19 10:17:29;;;;;;;8.13;6.95;;;;;;;13.63;57.73;94684.06;5050602;28;20109;-71
2023/10/19 10:20:25;;;;;;;21.23;14.77;;;;;;;13.67;58.11;94674.94;5051301;28;20040;-71
2023/10/19 10:23:32;;;;;;;9.50;7.55;;;;;;;13.65;57.83;94676.91;5015681;28;20691;-71
2023/10/19 10:25:58;;;;;;;6.75;5.75;;;;;;;13.82;57.24;94667.44;5053318;28;20060;-71
2023/10/19 10:28:24;;;;;;;7.82;6.07;;;;;;;13.89;57.45;94671.06;5052811;28;20032;-71
2023/10/19 10:31:08;;;;;;;7.28;5.65;;;;;;;14.02;57.03;94668.06;5051744;28;20407;-71
2023/10/19 10:33:49;;;;;;;6.72;5.32;;;;;;;14.07;57.71;94668.44;5051436;28;20499;-71
2023/10/19 10:36:16;;;;;;;6.90;5.45;;;;;;;14.00;56.85;94657.78;5068134;28;20514;-71
2023/10/19 10:38:43;;;;;;;6.75;5.43;;;;;;;14.15;56.81;94642.38;5052591;28;20025;-71
2023/10/19 10:41:11;;;;;;;8.68;5.88;;;;;;;14.36;57.22;94639.41;5067836;28;20032;-71
2023/10/19 10:43:55;;;;;;;8.88;5.65;;;;;;;14.64;55.70;94639.25;5051306;28;20040;-71
2023/10/19 10:46:22;;;;;;;6.97;6.28;;;;;;;14.51;56.35;94626.56;5057762;28;20108;-71
2023/10/19 10:48:48;;;;;;;7.30;6.50;;;;;;;14.63;56.07;94619.34;5073986;28;20025;-71
2023/10/19 10:51:30;;;;;;;7.95;6.30;;;;;;;14.76;55.59;94596.16;5065401;28;20029;-71
2023/10/19 10:53:57;;;;;;;7.65;6.07;;;;;;;14.75;55.85;94591.91;5050944;28;20091;-71
2023/10/19 10:56:23;;;;;;;8.07;6.38;;;;;;;15.01;54.82;94607.53;5034403;28;20025;-70
2023/10/19 10:58:49;;;;;;;8.52;7.03;;;;;;;14.96;55.98;94600.19;5070644;28;20398;-71
2023/10/19 11:01:15;;;;;;;6.97;5.75;;;;;;;14.80;55.86;94600.13;5064229;28;20115;-72
2023/10/19 11:03:42;;;;;;;7.55;5.93;;;;;;;14.97;55.45;94585.28;5050468;28;20025;-72
2023/10/19 11:06:08;;;;;;;8.57;6.30;;;;;;;15.15;55.76;94595.63;5034449;28;20285;-72
2023/10/19 11:08:34;;;;;;;8.30;5.90;;;;;;;15.03;55.97;94584.66;5050670;28;20025;-71
2023/10/19 11:11:07;;;;;;;8.35;6.32;;;;;;;15.31;54.81;94589.63;5051902;28;20514;-72
2023/10/19 11:13:35;;;;;;;8.18;6.80;;;;;;;15.31;54.42;94576.53;5050587;28;20119;-71
2023/10/19 11:16:03;;;;;;;8.02;6.70;;;;;;;15.36;54.41;94580.31;5050709;28;20036;-70
2023/10/19 11:18:29;;;;;;;8.23;6.30;;;;;;;15.44;54.02;94566.41;5057816;28;20052;-71
2023/10/19 11:20:55;;;;;;;7.40;6.43;;;;;;;15.38;54.65;94567.06;5059579;28;20048;-70
2023/10/19 11:23:42;;;;;;;10.27;7.43;;;;;;;15.44;54.40;94552.50;5051652;28;20040;-70
2023/10/19 11:26:09;;;;;;;6.93;5.68;;;;;;;15.57;53.99;94551.03;5070550;28;20041;-70
2023/10/19 11:28:38;;;;;;;6.90;5.60;;;;;;;15.73;53.43;94550.22;5070331;28;20403;-70
2023/10/19 11:31:18;;;;;;;7.95;5.63;;;;;;;15.67;53.77;94534.34;5070350;28;20040;-70
2023/10/19 11:33:44;;;;;;;7.35;6.20;;;;;;;15.72;54.00;94537.31;5071550;28;20128;-70
2023/10/19 11:36:13;;;;;;;9.18;6.30;;;;;;;15.78;53.45;94537.47;5067732;28;20090;-71
2023/10/19 11:38:43;;;;;;;6.18;5.55;;;;;;;15.88;53.69;94529.44;5050161;28;20052;-70
2023/10/19 11:41:13;;;;;;;6.93;5.47;;;;;;;15.99;52.69;94534.34;5046694;28;20028;-70
2023/10/19 11:43:39;;;;;;;7.88;6.20;;;;;;;15.98;53.60;94532.69;5053303;28;20036;-71
2023/10/19 11:46:05;;;;;;;8.43;6.40;;;;;;;15.95;53.89;94532.22;5067954;28;20027;-70
2023/10/19 11:48:35;;;;;;;6.90;5.55;;;;;;;16.06;53.46;94524.81;5069732;28;20024;-70
2023/10/19 11:51:03;;;;;;;6.63;5.65;;;;;;;16.05;53.07;94496.19;5037152;28;20040;-70
2023/10/19 11:53:34;;;;;;;6.13;5.50;;;;;;;16.08;52.61;94499.28;5053251;28;20036;-70
2023/10/19 11:56:17;;;;;;;6.60;5.97;;;;;;;16.28;53.01;94504.94;5051652;28;20043;-70
2023/10/19 11:58:46;;;;;;;5.90;5.20;;;;;;;16.42;52.51;94503.41;5067911;28;20086;-70
2023/10/19 12:01:12;;;;;;;7.47;5.45;;;;;;;16.34;51.91;94500.81;5067994;28;20028;-70
2023/10/19 12:03:41;;;;;;;6.40;5.43;;;;;;;16.41;51.90;94507.03;5051913;28;20036;-70